Marion, KY

4:34 AM CDT on September 25, 2016 (GMT -0500)
Marion-Critt Cnty AP, Marion,

Weather History for K5M9 - January, 2014

Change the Weather History Date:

Friday, January 24, 2014

  Actual Average (KPAH) Record (KPAH)
Temperature  
Mean Temperature 14 °F 35 °F  
Max Temperature 26 °F 44 °F 73 °F (1950)
Min Temperature 1 °F 26 °F -11 °F (1963)
Degree Days  
Heating Degree Days 52 30  
Month to date heating degree days 737  
Since 1 July heating degree days 2368  
Cooling Degree Days 0 0  
Month to date cooling degree days 0  
Year to date cooling degree days 0  
Moisture  
Dew Point 0 °F    
Average Humidity 55    
Maximum Humidity 88    
Minimum Humidity 32    
Precipitation  
Precipitation 0.00 in 0.12 in 1.14 in (1941)
Month to date precipitation 2.83  
Year to date precipitation 2.83  
Snow  
Snow 0.00 in 0.10 in 1.30 in (1956)
Month to date snowfall 2.2  
Since 1 July snowfall 4.5  
Snow Depth -    
Sea Level Pressure  
Sea Level Pressure 30.39 in    
Wind  
Wind Speed 8 mph (SW)    
Max Wind Speed 21 mph    
Max Gust Speed 32 mph    
Visibility 10 miles    
Events      
T = Trace of Precipitation, MM = Missing Value Source: NWS Daily Summary

Daily Weather History Graph

Daily Weather History Graph

Search for Another Location

Airport or City:

Trip Planner

Search our weather history database for the weather conditions in past years. The results will help you decide how hot, cold, wet, or windy it might be!

Date:

Astronomy

Jan. 24, 2014 Rise Set
Actual Time 7:01 AM CST 5:08 PM CST
Civil Twilight 6:33 AM CST 5:36 PM CST
Nautical Twilight 6:01 AM CST 6:07 PM CST
Astronomical Twilight 5:30 AM CST 6:38 PM CST
Moon 12:30 AM CST (1/24) 11:25 AM CST (1/24)
Length of Visible Light 11h 02m
Length of Day
10h 06m
Last Quarter, 44% of the Moon is Illuminated
Jan 24
Last Quarter
Jan 30
New
Feb 6
First Quarter
Feb 14
Full
Feb 22
Last Quarter

Hourly Weather History & Observations

Time (CST) Temp. Windchill Dew Point Humidity Pressure Visibility Wind Dir Wind Speed Gust Speed Precip Events Conditions
12:15 AM 4.6 °F - -1.3 °F 76% 30.71 in 10.0 mi Calm Calm - N/A   Clear
12:35 AM 5.0 °F -2.1 °F -1.8 °F 73% 30.71 in 10.0 mi WNW 3.5 mph - N/A   Clear
12:55 AM 5.0 °F -4.1 °F -1.8 °F 73% 30.70 in 10.0 mi West 4.6 mph - N/A   Clear
1:15 AM 5.0 °F -4.1 °F -1.8 °F 73% 30.70 in 10.0 mi West 4.6 mph - N/A   Clear
1:35 AM 4.1 °F -3.2 °F -2.0 °F 76% 30.70 in 10.0 mi West 3.5 mph - N/A   Clear
1:55 AM 4.8 °F -4.3 °F -2.2 °F 73% 30.70 in 10.0 mi WNW 4.6 mph - N/A   Clear
2:15 AM 3.7 °F -3.6 °F -2.4 °F 76% 30.69 in 10.0 mi West 3.5 mph - N/A   Clear
2:35 AM 1.2 °F -6.4 °F -1.8 °F 87% 30.68 in 10.0 mi SSW 3.5 mph - N/A   Clear
2:55 AM 1.0 °F -8.7 °F -2.2 °F 86% 30.67 in 10.0 mi SSW 4.6 mph - N/A   Clear
3:15 AM 1.2 °F -8.5 °F -2.0 °F 86% 30.67 in 10.0 mi SW 4.6 mph - N/A   Clear
3:35 AM 2.1 °F -7.4 °F -2.0 °F 83% 30.66 in 10.0 mi SW 4.6 mph - N/A   Clear
3:55 AM 1.2 °F -6.4 °F -2.2 °F 86% 30.65 in 10.0 mi SW 3.5 mph - N/A   Clear
4:15 AM 1.4 °F -9.9 °F -2.2 °F 85% 30.66 in 10.0 mi SW 5.8 mph - N/A   Clear
4:35 AM 1.8 °F -7.8 °F -1.8 °F 85% 30.65 in 10.0 mi SSW 4.6 mph - N/A   Clear
4:55 AM 1.4 °F -8.3 °F -2.2 °F 85% 30.65 in 10.0 mi SW 4.6 mph - N/A   Clear
5:15 AM 1.2 °F -6.4 °F -2.2 °F 86% 30.64 in 10.0 mi SSW 3.5 mph - N/A   Clear
5:35 AM 1.4 °F -8.3 °F -1.7 °F 87% 30.64 in 10.0 mi SSW 4.6 mph - N/A   Clear
5:55 AM 1.0 °F -8.7 °F -1.8 °F 88% 30.63 in 10.0 mi SSW 4.6 mph - N/A   Clear
6:15 AM 1.0 °F -6.7 °F -2.2 °F 86% 30.62 in 10.0 mi South 3.5 mph - N/A   Clear
6:35 AM 1.4 °F -9.9 °F -2.2 °F 85% 30.62 in 10.0 mi SSW 5.8 mph - N/A   Clear
6:55 AM 1.4 °F -8.3 °F -2.0 °F 86% 30.61 in 10.0 mi SSW 4.6 mph - N/A   Clear
7:15 AM 1.9 °F -5.6 °F -1.3 °F 86% 30.61 in 10.0 mi SSW 3.5 mph - N/A   Clear
7:35 AM 3.6 °F -7.3 °F 0.1 °F 86% 30.60 in 10.0 mi SSW 5.8 mph - N/A   Clear
7:55 AM 5.5 °F -7.4 °F 0.9 °F 81% 30.59 in 10.0 mi SSW 8.1 mph - N/A   Clear
8:15 AM 6.6 °F -5.0 °F 1.2 °F 79% 30.59 in 10.0 mi SSW 6.9 mph - N/A   Clear
8:35 AM 8.4 °F -0.1 °F 2.3 °F 76% 30.59 in 10.0 mi SSW 4.6 mph - N/A   Clear
8:55 AM 10.6 °F -3.1 °F 2.8 °F 71% 30.59 in 10.0 mi SW 10.4 mph - N/A   Clear
9:15 AM 12.2 °F -0.2 °F 2.1 °F 64% 30.59 in 10.0 mi SSW 9.2 mph 18.4 mph N/A   Clear
9:35 AM 12.9 °F 0.7 °F 2.1 °F 62% 30.57 in 10.0 mi SSW 9.2 mph 17.3 mph N/A   Clear
9:55 AM 14.7 °F 3.8 °F 2.5 °F 58% 30.56 in 10.0 mi SSW 8.1 mph - N/A   Clear
10:15 AM 14.9 °F 2.3 °F 0.1 °F 52% 30.55 in 10.0 mi SW 10.4 mph 21.9 mph N/A   Clear
10:35 AM 17.1 °F 3.6 °F 2.1 °F 52% 30.54 in 10.0 mi SW 12.7 mph 18.4 mph N/A   Clear
10:55 AM 17.2 °F 4.5 °F 0.1 °F 47% 30.53 in 10.0 mi SW 11.5 mph 24.2 mph N/A   Clear
11:15 AM 18.3 °F 6.6 °F 1.6 °F 48% 30.51 in 10.0 mi SSW 10.4 mph 20.7 mph N/A   Clear
11:35 AM 18.9 °F 5.3 °F 0.9 °F 46% 30.49 in 10.0 mi SW 13.8 mph 20.7 mph N/A   Clear
11:55 AM 20.1 °F 7.5 °F 1.4 °F 44% 30.47 in 10.0 mi SW 12.7 mph 19.6 mph N/A   Clear
12:15 PM 21.7 °F 9.6 °F 1.9 °F 42% 30.44 in 10.0 mi SSW 12.7 mph 24.2 mph N/A   Clear
12:35 PM 23.0 °F 13.9 °F 2.5 °F 41% 30.42 in 10.0 mi SSW 8.1 mph 18.4 mph N/A   Clear
12:55 PM 22.8 °F 11.5 °F 1.0 °F 39% 30.39 in 10.0 mi SSW 11.5 mph 19.6 mph N/A   Clear
1:15 PM 23.9 °F 11.7 °F 1.8 °F 38% 30.37 in 10.0 mi SSW 13.8 mph 25.3 mph N/A   Clear
1:35 PM 24.3 °F 12.2 °F 1.9 °F 38% 30.35 in 10.0 mi SW 13.8 mph 20.7 mph N/A   Clear
1:55 PM 24.1 °F 12.0 °F 0.7 °F 36% 30.33 in 10.0 mi SSW 13.8 mph 25.3 mph N/A   Clear
2:15 PM 25.3 °F 13.6 °F 1.9 °F 37% 30.30 in 10.0 mi SSW 13.8 mph 26.5 mph N/A   Clear
2:35 PM 25.5 °F 12.9 °F 1.4 °F 35% 30.28 in 10.0 mi SW 16.1 mph 26.5 mph N/A   Clear
2:55 PM 25.2 °F 12.0 °F 1.0 °F 35% 30.27 in 10.0 mi SSW 17.3 mph 25.3 mph N/A   Clear
3:15 PM 25.5 °F 12.9 °F 0.9 °F 35% 30.25 in 10.0 mi SSW 16.1 mph 26.5 mph N/A   Clear
3:35 PM 25.2 °F 12.4 °F 0.3 °F 34% 30.23 in 10.0 mi SSW 16.1 mph 29.9 mph N/A   Clear
3:55 PM 24.8 °F 13.4 °F -0.0 °F 34% 30.22 in 10.0 mi SSW 12.7 mph 25.3 mph N/A   Clear
4:15 PM 24.8 °F 12.9 °F 0.3 °F 35% 30.19 in 10.0 mi SSW 13.8 mph 25.3 mph N/A   Clear
4:35 PM 24.4 °F 11.9 °F -0.2 °F 34% 30.17 in 10.0 mi SSW 15.0 mph 29.9 mph N/A   Clear
4:55 PM 23.7 °F 10.1 °F 0.5 °F 37% 30.14 in 10.0 mi SSW 17.3 mph 28.8 mph N/A   Clear
5:15 PM 23.4 °F 12.2 °F 0.1 °F 37% 30.14 in 10.0 mi SSW 11.5 mph 24.2 mph N/A   Clear
5:35 PM 23.0 °F 12.4 °F 0.7 °F 38% 30.14 in 10.0 mi SSW 10.4 mph 26.5 mph N/A   Clear
5:55 PM 23.0 °F 11.1 °F 0.5 °F 38% 30.13 in 10.0 mi SSW 12.7 mph 26.5 mph N/A   Clear
6:15 PM 22.8 °F 10.9 °F 0.5 °F 38% 30.14 in 10.0 mi SW 12.7 mph 21.9 mph N/A   Clear
6:35 PM 22.8 °F 10.9 °F -0.4 °F 36% 30.14 in 10.0 mi SW 12.7 mph 20.7 mph N/A   Clear
6:55 PM 22.5 °F 11.7 °F -0.0 °F 38% 30.13 in 10.0 mi SSW 10.4 mph 21.9 mph N/A   Clear
7:15 PM 22.1 °F 10.0 °F 0.1 °F 38% 30.10 in 10.0 mi SSW 12.7 mph 21.9 mph N/A   Clear
7:35 PM 22.5 °F 10.5 °F -0.2 °F 37% 30.09 in 10.0 mi SSW 12.7 mph 24.2 mph N/A   Clear
7:55 PM 22.6 °F 10.1 °F -0.4 °F 37% 30.08 in 10.0 mi SSW 13.8 mph 25.3 mph N/A   Clear
8:15 PM 23.0 °F 9.6 °F -0.4 °F 36% 30.04 in 10.0 mi SSW 16.1 mph 29.9 mph N/A   Clear
8:35 PM 23.5 °F 9.4 °F -1.1 °F 34% 30.04 in 10.0 mi SW 18.4 mph 32.2 mph N/A   Clear
8:55 PM 23.7 °F 10.1 °F -1.3 °F 34% 30.04 in 10.0 mi SSW 17.3 mph 27.6 mph N/A   Clear
9:15 PM 23.9 °F 12.9 °F -1.3 °F 33% 30.04 in 10.0 mi SW 11.5 mph 24.2 mph N/A   Clear
9:35 PM 24.6 °F 10.1 °F -1.3 °F 32% 30.02 in 10.0 mi SW 20.7 mph 29.9 mph N/A   Clear
9:55 PM 24.8 °F 10.3 °F -0.6 °F 33% 30.03 in 10.0 mi SW 20.7 mph 29.9 mph N/A   Clear
10:15 PM 25.2 °F 13.9 °F 0.1 °F 34% 30.00 in 10.0 mi SW 12.7 mph 29.9 mph N/A   Mostly Cloudy
10:35 PM 25.5 °F 13.3 °F 0.5 °F 34% 29.99 in 10.0 mi SSW 15.0 mph 28.8 mph N/A   Overcast
10:55 PM 25.5 °F 12.9 °F 1.0 °F 35% 29.98 in 10.0 mi SW 16.1 mph 28.8 mph N/A   Overcast
11:15 PM 25.7 °F 14.0 °F 1.4 °F 35% 29.96 in 10.0 mi SW 13.8 mph 31.1 mph N/A   Overcast
11:35 PM 26.1 °F 14.5 °F 2.1 °F 36% 29.95 in 10.0 mi SSW 13.8 mph 27.6 mph N/A   Overcast
11:55 PM 26.1 °F 13.1 °F 2.3 °F 36% 29.94 in 10.0 mi SW 17.3 mph 27.6 mph N/A   Overcast